createdAt,value
2022-12-23T00:00:04.728Z,2.58
2022-12-23T00:02:38.516Z,2.78
2022-12-23T00:05:07.330Z,2.50
2022-12-23T00:07:35.306Z,2.40
2022-12-23T00:10:03.090Z,3.17
2022-12-23T00:12:48.994Z,2.60
2022-12-23T00:15:16.758Z,3.58
2022-12-23T00:17:45.950Z,3.38
2022-12-23T00:20:15.593Z,2.58
2022-12-23T00:23:00.982Z,3.63
2022-12-23T00:25:41.229Z,3.65
2022-12-23T00:28:12.465Z,3.17
2022-12-23T00:30:46.701Z,3.13
2022-12-23T00:33:14.918Z,4.05
2022-12-23T00:35:42.753Z,3.30
2022-12-23T00:38:10.880Z,3.67
2022-12-23T00:40:56.646Z,3.83
2022-12-23T00:43:25.744Z,2.83
2022-12-23T00:45:53.553Z,3.78
2022-12-23T00:48:38.748Z,3.08
2022-12-23T00:51:06.843Z,3.15
2022-12-23T00:53:34.580Z,3.53
2022-12-23T00:56:02.325Z,3.47
2022-12-23T00:58:31.887Z,3.40
2022-12-23T01:01:17.156Z,3.60
2022-12-23T01:03:58.891Z,3.70
2022-12-23T01:06:26.673Z,3.63
2022-12-23T01:08:54.356Z,3.42
2022-12-23T01:11:22.114Z,3.80
2022-12-23T01:13:51.205Z,3.17
2022-12-23T01:16:19.176Z,4.63
2022-12-23T01:18:46.961Z,3.40
2022-12-23T01:21:14.775Z,2.92
2022-12-23T01:23:42.558Z,3.28
2022-12-23T01:26:10.472Z,3.05
2022-12-23T01:28:38.475Z,3.55
2022-12-23T01:31:10.871Z,3.28
2022-12-23T01:33:38.639Z,3.10
2022-12-23T01:36:08.511Z,3.10
2022-12-23T01:38:36.288Z,3.20
2022-12-23T01:41:04.036Z,2.65
2022-12-23T01:43:45.653Z,3.35
2022-12-23T01:46:14.877Z,3.42
2022-12-23T01:48:43.131Z,3.40
2022-12-23T01:51:14.366Z,3.42
2022-12-23T01:53:45.433Z,3.67
2022-12-23T01:56:14.827Z,3.38
2022-12-23T01:58:45.144Z,3.17
2022-12-23T02:01:32.276Z,3.83
2022-12-23T02:04:03.230Z,3.65
2022-12-23T02:06:52.569Z,3.22
2022-12-23T02:09:22.416Z,3.17
2022-12-23T02:12:21.380Z,3.55
2022-12-23T02:15:16.638Z,3.97
2022-12-23T02:17:53.997Z,4.17
2022-12-23T02:20:37.497Z,4.00
2022-12-23T02:23:20.768Z,4.35
2022-12-23T02:25:57.926Z,4.25
2022-12-23T02:28:42.305Z,4.13
2022-12-23T02:31:19.872Z,4.43
2022-12-23T02:33:53.904Z,3.45
2022-12-23T02:36:32.604Z,4.43
2022-12-23T02:39:04.843Z,5.30
2022-12-23T02:41:37.648Z,4.70
2022-12-23T02:44:11.282Z,5.03
2022-12-23T02:46:47.266Z,5.68
2022-12-23T02:49:18.200Z,5.57
2022-12-23T02:51:49.290Z,6.75
2022-12-23T02:54:20.909Z,6.60
2022-12-23T02:56:51.093Z,5.90
2022-12-23T02:59:20.938Z,4.72
2022-12-23T03:01:50.911Z,6.03
2022-12-23T03:04:18.794Z,6.43
2022-12-23T03:06:49.661Z,7.32
2022-12-23T03:09:26.094Z,7.22
2022-12-23T03:12:06.652Z,6.45
2022-12-23T03:14:52.081Z,7.33
2022-12-23T03:17:31.185Z,7.28
2022-12-23T03:20:05.102Z,7.70
2022-12-23T03:22:36.746Z,6.40
2022-12-23T03:25:07.401Z,7.30
2022-12-23T03:27:39.859Z,7.57
2022-12-23T03:30:09.962Z,8.10
2022-12-23T03:32:42.381Z,8.18
2022-12-23T03:35:10.887Z,8.45
2022-12-23T03:37:42.233Z,9.10
2022-12-23T03:40:13.202Z,8.20
2022-12-23T03:42:42.619Z,9.20
2022-12-23T03:48:09.362Z,8.02
2022-12-23T03:50:37.694Z,7.85
2022-12-23T03:53:09.614Z,8.18
2022-12-23T03:55:39.936Z,6.95
2022-12-23T03:58:12.840Z,4.95
2022-12-23T04:00:45.005Z,6.45
2022-12-23T04:03:19.859Z,7.00
2022-12-23T04:05:51.771Z,7.05
2022-12-23T04:08:24.005Z,6.93
2022-12-23T04:10:52.242Z,7.10
2022-12-23T04:13:20.115Z,6.60
2022-12-23T04:15:48.000Z,7.45
2022-12-23T04:18:17.286Z,7.80
2022-12-23T04:20:45.075Z,7.70
2022-12-23T04:23:12.808Z,8.07
2022-12-23T04:25:40.483Z,8.82
2022-12-23T04:28:08.217Z,10.00
2022-12-23T04:30:35.959Z,8.55
2022-12-23T04:33:03.742Z,9.13
2022-12-23T04:35:32.885Z,10.63
2022-12-23T04:38:00.679Z,9.97
2022-12-23T04:40:28.538Z,10.13
2022-12-23T04:42:56.270Z,9.85
2022-12-23T04:45:24.042Z,9.63
2022-12-23T04:47:51.788Z,9.00
2022-12-23T04:50:19.572Z,9.85
2022-12-23T04:52:48.705Z,9.67
2022-12-23T04:55:16.590Z,8.50
2022-12-23T04:57:44.392Z,7.40
2022-12-23T05:00:13.165Z,7.65
2022-12-23T05:02:41.060Z,7.75
2022-12-23T05:05:09.476Z,7.82
2022-12-23T05:07:37.236Z,7.47
2022-12-23T05:10:07.139Z,7.47
2022-12-23T05:12:34.879Z,7.57
2022-12-23T05:15:02.600Z,6.50
2022-12-23T05:17:30.317Z,6.55
2022-12-23T05:19:58.043Z,6.97
2022-12-23T05:22:25.790Z,6.97
2022-12-23T05:24:53.527Z,6.93
2022-12-23T05:27:22.630Z,5.93
2022-12-23T05:29:50.368Z,6.07
2022-12-23T05:32:18.082Z,5.25
2022-12-23T05:34:45.938Z,5.45
2022-12-23T05:37:13.713Z,5.63
2022-12-23T05:39:41.447Z,5.82
2022-12-23T05:42:09.179Z,6.00
2022-12-23T05:44:38.303Z,5.30
2022-12-23T05:47:06.095Z,5.00
2022-12-23T05:49:33.835Z,5.30
2022-12-23T05:52:01.564Z,5.15
2022-12-23T05:54:29.254Z,5.30
2022-12-23T05:56:56.944Z,5.78
2022-12-23T05:59:30.579Z,5.60
2022-12-23T06:02:00.509Z,5.77
2022-12-23T06:04:28.576Z,5.15
2022-12-23T06:06:56.363Z,5.97
2022-12-23T06:09:24.071Z,5.30
2022-12-23T06:11:51.853Z,4.90
2022-12-23T06:14:23.844Z,4.72
2022-12-23T06:16:54.727Z,4.93
2022-12-23T06:19:23.871Z,4.30
2022-12-23T06:21:51.578Z,4.80
2022-12-23T06:24:19.291Z,4.60
2022-12-23T06:26:49.779Z,5.38
2022-12-23T06:29:21.351Z,5.53
2022-12-23T06:31:49.173Z,5.63
2022-12-23T06:34:17.026Z,5.43
2022-12-23T06:36:46.180Z,6.37
2022-12-23T06:39:14.151Z,6.00
2022-12-23T06:41:41.910Z,6.33
2022-12-23T06:44:10.061Z,6.47
2022-12-23T06:46:37.809Z,5.85
2022-12-23T06:49:12.606Z,5.77
2022-12-23T06:51:40.704Z,6.68
2022-12-23T06:54:11.247Z,6.03
2022-12-23T06:56:38.991Z,6.45
2022-12-23T06:59:06.769Z,7.13
2022-12-23T07:01:34.686Z,7.43
2022-12-23T07:04:03.066Z,7.77
2022-12-23T07:06:30.856Z,8.07
2022-12-23T07:08:58.714Z,9.53
2022-12-23T07:11:27.842Z,9.25
2022-12-23T07:13:55.651Z,9.03
2022-12-23T07:16:23.532Z,8.65
2022-12-23T07:18:51.326Z,7.63
2022-12-23T07:21:28.314Z,8.85
2022-12-23T07:23:57.033Z,8.70
2022-12-23T07:26:24.799Z,8.52
2022-12-23T07:28:53.888Z,8.30
2022-12-23T07:31:21.710Z,8.30
2022-12-23T07:33:49.509Z,8.33
2022-12-23T07:36:17.888Z,7.95
2022-12-23T07:38:45.632Z,7.53
2022-12-23T07:41:13.368Z,8.63
2022-12-23T07:43:41.218Z,7.70
2022-12-23T07:46:10.726Z,8.55
2022-12-23T07:48:38.576Z,9.23
2022-12-23T07:51:06.742Z,9.38
2022-12-23T07:53:34.534Z,10.20
2022-12-23T07:56:02.267Z,9.77
2022-12-23T07:58:30.014Z,10.03
2022-12-23T08:01:02.448Z,9.05
2022-12-23T08:03:31.895Z,10.23
2022-12-23T08:06:03.707Z,9.75
2022-12-23T08:08:31.894Z,10.27
2022-12-23T08:11:00.931Z,9.98
2022-12-23T08:13:29.004Z,9.75
2022-12-23T08:15:57.719Z,9.60
2022-12-23T08:18:26.115Z,9.53
2022-12-23T08:20:59.404Z,9.43
2022-12-23T08:23:28.876Z,12.25
2022-12-23T08:26:01.396Z,10.65
2022-12-23T08:28:29.516Z,10.40
2022-12-23T08:30:57.499Z,9.60
2022-12-23T08:33:25.254Z,10.32
2022-12-23T08:35:55.149Z,10.43
2022-12-23T08:38:24.312Z,10.52
2022-12-23T08:40:51.983Z,9.98
2022-12-23T08:43:20.628Z,10.73
2022-12-23T08:45:48.482Z,10.30
2022-12-23T08:48:16.511Z,11.30
2022-12-23T08:50:46.048Z,11.18
2022-12-23T08:53:14.406Z,10.50
2022-12-23T08:55:45.287Z,9.98
2022-12-23T08:58:13.986Z,10.02
2022-12-23T09:00:41.803Z,10.98
2022-12-23T09:03:09.821Z,9.63
2022-12-23T09:05:40.706Z,10.35
2022-12-23T09:08:08.855Z,10.57
2022-12-23T09:10:43.385Z,9.68
2022-12-23T09:13:13.790Z,9.73
2022-12-23T09:15:44.633Z,10.00
2022-12-23T09:18:12.842Z,10.45
2022-12-23T09:20:40.580Z,10.63
2022-12-23T09:23:08.315Z,11.18
2022-12-23T09:25:37.304Z,9.75
2022-12-23T09:28:07.810Z,11.38
2022-12-23T09:30:35.577Z,8.80
2022-12-23T09:33:03.382Z,9.25
2022-12-23T09:35:31.154Z,9.30
2022-12-23T09:37:58.916Z,11.65
2022-12-23T09:40:30.541Z,10.05
2022-12-23T09:43:07.745Z,8.45
2022-12-23T09:45:49.857Z,8.25
2022-12-23T09:48:20.538Z,8.02
2022-12-23T09:50:48.422Z,8.55
2022-12-23T09:53:18.170Z,9.55
2022-12-23T09:55:50.957Z,7.72
2022-12-23T09:58:28.776Z,7.57
2022-12-23T10:01:07.849Z,9.23
2022-12-23T10:03:41.961Z,8.57
2022-12-23T10:06:14.336Z,8.43
2022-12-23T10:08:46.116Z,8.63
2022-12-23T10:11:15.807Z,7.88
2022-12-23T10:13:46.696Z,8.43
2022-12-23T10:16:18.176Z,8.38
2022-12-23T10:18:52.565Z,8.13
2022-12-23T10:21:27.968Z,8.38
2022-12-23T10:23:56.490Z,8.43
2022-12-23T10:26:26.364Z,8.48
2022-12-23T10:29:01.581Z,7.53
2022-12-23T10:31:42.859Z,8.85
2022-12-23T10:34:17.236Z,8.05
2022-12-23T10:36:50.343Z,8.63
2022-12-23T10:39:29.529Z,8.95
2022-12-23T10:42:04.686Z,7.60
2022-12-23T10:44:57.453Z,9.10
2022-12-23T10:47:34.388Z,8.07
2022-12-23T10:50:11.094Z,8.02
2022-12-23T10:52:42.021Z,8.70
2022-12-23T10:55:17.300Z,8.35
2022-12-23T10:57:45.071Z,8.32
2022-12-23T11:00:19.542Z,8.15
2022-12-23T11:03:03.340Z,8.70
2022-12-23T11:05:31.698Z,8.68
2022-12-23T11:07:59.779Z,10.13
2022-12-23T11:10:31.287Z,9.13
2022-12-23T11:12:59.120Z,8.60
2022-12-23T11:15:34.489Z,10.18
2022-12-23T11:18:05.094Z,8.63
2022-12-23T11:20:33.515Z,8.43
2022-12-23T11:23:02.785Z,8.43
2022-12-23T11:25:37.031Z,7.30
2022-12-23T11:28:08.031Z,7.22
2022-12-23T11:30:55.668Z,8.07
2022-12-23T11:33:26.319Z,7.28
2022-12-23T11:36:06.126Z,8.13
2022-12-23T11:38:35.441Z,7.28
2022-12-23T11:41:04.661Z,7.07
2022-12-23T11:43:32.664Z,6.43
2022-12-23T11:46:19.895Z,6.60
2022-12-23T11:48:54.345Z,7.28
2022-12-23T11:51:26.840Z,6.53
2022-12-23T11:54:00.943Z,6.68
2022-12-23T11:56:30.183Z,6.22
2022-12-23T11:59:02.453Z,5.43
2022-12-23T12:01:31.642Z,6.35
2022-12-23T12:04:01.826Z,6.38
2022-12-23T12:06:30.817Z,5.35
2022-12-23T12:09:00.303Z,5.82
2022-12-23T12:11:30.765Z,5.80
2022-12-23T12:14:00.710Z,5.68
2022-12-23T12:16:44.645Z,5.53
2022-12-23T12:19:16.669Z,6.50
2022-12-23T12:21:45.733Z,6.57
2022-12-23T12:24:19.573Z,6.78
2022-12-23T12:26:51.129Z,6.60
2022-12-23T12:29:22.417Z,6.10
2022-12-23T12:31:52.983Z,6.88
2022-12-23T12:34:33.381Z,6.50
2022-12-23T12:37:04.316Z,5.47
2022-12-23T12:39:37.206Z,5.80
2022-12-23T12:42:12.805Z,6.35
2022-12-23T12:44:43.492Z,6.80
2022-12-23T12:47:44.464Z,6.47
2022-12-23T12:50:08.045Z,6.20
2022-12-23T12:52:38.553Z,7.22
2022-12-23T12:55:14.739Z,7.05
2022-12-23T12:57:42.591Z,6.60
2022-12-23T13:00:15.922Z,6.22
2022-12-23T13:02:59.406Z,5.97
2022-12-23T13:05:35.610Z,5.55
2022-12-23T13:08:18.829Z,5.53
2022-12-23T13:10:50.958Z,5.05
2022-12-23T13:13:29.501Z,5.43
2022-12-23T13:16:02.449Z,7.45
2022-12-23T13:18:39.338Z,6.13
2022-12-23T13:21:12.576Z,5.57
2022-12-23T13:23:45.153Z,4.35
2022-12-23T13:26:21.025Z,3.75
2022-12-23T13:28:55.577Z,4.20
2022-12-23T13:31:32.182Z,4.20
2022-12-23T13:34:06.021Z,3.13
2022-12-23T13:36:41.086Z,4.63
2022-12-23T13:39:18.518Z,6.50
2022-12-23T13:41:48.671Z,4.72
2022-12-23T13:44:18.627Z,5.55
2022-12-23T13:46:52.927Z,6.10
2022-12-23T13:49:32.683Z,5.50
2022-12-23T13:52:06.203Z,4.82
2022-12-23T13:54:43.644Z,5.35
2022-12-23T13:57:19.222Z,5.32
2022-12-23T14:00:04.940Z,5.25
2022-12-23T14:02:43.585Z,5.15
2022-12-23T14:05:36.911Z,5.15
2022-12-23T14:08:06.617Z,4.60
2022-12-23T14:10:35.124Z,4.93
2022-12-23T14:13:05.845Z,5.65
2022-12-23T14:15:44.889Z,4.68
2022-12-23T14:18:25.347Z,5.00
2022-12-23T14:21:01.661Z,4.22
2022-12-23T14:23:39.609Z,4.28
2022-12-23T14:26:19.882Z,4.05
2022-12-23T14:29:03.929Z,3.70
2022-12-23T14:31:40.807Z,6.45
2022-12-23T14:34:27.339Z,4.13
2022-12-23T14:37:32.519Z,4.15
2022-12-23T14:40:40.149Z,3.55
2022-12-23T14:43:38.814Z,3.03
2022-12-23T14:46:07.225Z,2.70
2022-12-23T14:49:38.479Z,2.60
2022-12-23T14:52:44.804Z,2.40
2022-12-23T14:55:46.416Z,1.90
2022-12-23T14:58:55.496Z,1.70
2022-12-23T15:01:30.410Z,1.90
2022-12-23T15:04:01.670Z,2.08
2022-12-23T15:06:34.697Z,1.83
2022-12-23T15:09:02.813Z,2.05
2022-12-23T15:11:33.813Z,1.85
2022-12-23T15:14:04.688Z,2.17
2022-12-23T15:16:35.181Z,2.15
2022-12-23T15:19:13.918Z,1.80
2022-12-23T15:21:43.183Z,2.28
2022-12-23T15:24:17.426Z,1.92
2022-12-23T15:27:09.754Z,1.80
2022-12-23T15:29:38.499Z,2.67
2022-12-23T15:32:06.352Z,2.20
2022-12-23T15:34:35.249Z,2.17
2022-12-23T15:37:03.091Z,2.15
2022-12-23T15:39:34.535Z,2.30
2022-12-23T15:42:04.075Z,2.30
2022-12-23T15:44:37.424Z,1.63
2022-12-23T15:47:22.844Z,1.60
2022-12-23T15:49:50.781Z,2.10
2022-12-23T15:52:20.604Z,2.20
2022-12-23T15:54:55.205Z,1.60
2022-12-23T15:57:27.569Z,1.77
2022-12-23T15:59:55.597Z,1.90
2022-12-23T16:02:59.898Z,1.60
2022-12-23T16:05:26.080Z,1.60
2022-12-23T16:08:09.970Z,1.20
2022-12-23T16:10:37.796Z,2.77
2022-12-23T16:13:15.507Z,1.42
2022-12-23T16:15:43.261Z,1.90
2022-12-23T16:18:19.093Z,1.80
2022-12-23T16:20:48.217Z,2.17
2022-12-23T16:23:16.951Z,2.10
2022-12-23T16:25:50.420Z,2.00
2022-12-23T16:28:24.118Z,2.22
2022-12-23T16:30:53.505Z,2.10
2022-12-23T16:33:31.886Z,2.35
2022-12-23T16:36:16.240Z,2.45
2022-12-23T16:38:44.200Z,2.92
2022-12-23T16:41:11.946Z,2.45
2022-12-23T16:43:44.704Z,3.35
2022-12-23T16:46:18.698Z,3.42
2022-12-23T16:48:50.613Z,3.80
2022-12-23T16:51:20.413Z,4.18
2022-12-23T16:53:48.484Z,3.78
2022-12-23T16:56:18.330Z,3.55
2022-12-23T16:58:47.574Z,4.03
2022-12-23T17:01:15.744Z,4.57
2022-12-23T17:03:43.542Z,4.75
2022-12-23T17:06:13.936Z,0.52
2022-12-23T17:08:42.008Z,5.80
2022-12-23T17:11:14.525Z,5.00
2022-12-23T17:13:42.284Z,5.70
2022-12-23T17:16:15.274Z,5.45
2022-12-23T17:18:43.155Z,5.35
2022-12-23T17:21:18.081Z,5.32
2022-12-23T17:23:45.883Z,5.43
2022-12-23T17:26:13.605Z,0.10
2022-12-23T17:28:41.533Z,1.48
2022-12-23T17:31:14.359Z,4.82
2022-12-23T17:33:44.646Z,4.90
2022-12-23T17:36:12.941Z,5.93
2022-12-23T17:38:40.950Z,0.00
2022-12-23T18:03:43.081Z,0.00
2022-12-23T18:06:14.564Z,0.00
2022-12-23T18:13:48.375Z,0.00
2022-12-23T18:16:16.238Z,0.00
2022-12-23T18:18:46.937Z,0.00
2022-12-23T18:21:22.521Z,0.10
2022-12-23T18:23:55.430Z,0.65
2022-12-23T18:26:23.232Z,0.00
2022-12-23T18:28:51.341Z,0.00
2022-12-23T18:31:21.736Z,0.05
2022-12-23T18:33:49.548Z,0.40
2022-12-23T18:36:23.207Z,0.80
2022-12-23T18:38:52.064Z,0.63
2022-12-23T18:41:19.994Z,0.30
2022-12-23T18:43:47.814Z,0.00
2022-12-23T18:46:15.581Z,1.10
2022-12-23T18:48:43.556Z,0.10
2022-12-23T18:51:14.707Z,0.13
2022-12-23T18:53:44.091Z,0.43
2022-12-23T18:56:14.353Z,0.13
2022-12-23T18:58:42.277Z,1.35
2022-12-23T19:01:12.602Z,0.93
2022-12-23T19:03:40.474Z,0.88
2022-12-23T19:06:09.541Z,1.27
2022-12-23T19:13:40.071Z,1.00
2022-12-23T19:16:08.076Z,0.00
2022-12-23T19:18:36.089Z,0.05
2022-12-23T19:21:05.559Z,0.47
2022-12-23T19:23:33.378Z,1.27
2022-12-23T19:26:02.252Z,0.98
2022-12-23T19:28:31.336Z,0.95
2022-12-23T19:30:59.303Z,0.80
2022-12-23T19:33:27.061Z,0.00
2022-12-23T19:35:54.817Z,0.10
2022-12-23T19:38:22.584Z,0.40
2022-12-23T19:40:57.757Z,1.27
2022-12-23T19:43:25.549Z,0.10
2022-12-23T19:45:59.267Z,1.13
2022-12-23T19:48:27.174Z,1.05
2022-12-23T19:50:58.961Z,0.88
2022-12-23T19:53:26.763Z,1.40
2022-12-23T19:55:59.298Z,0.45
2022-12-23T19:58:27.905Z,1.15
2022-12-23T20:01:08.029Z,1.85
2022-12-23T20:03:36.041Z,0.52
